Time;durP1;ratioP1;P1;durP2;ratioP2;P2;SDS_P1;SDS_P2;PMS_P1;PMS_P2;Temp;Humidity;BMP_temperature;BMP_pressure;BME280_temperature;BME280_humidity;BME280_pressure;Samples;Min_cycle;Max_cycle;Signal;HPM_P1;HPM_P2
2023/07/29 00:00:42;;;;;;;;;;;;;;;;;;6179435;23;19976;-87
2023/07/29 00:03:08;;;;;;;;;;;;;;;;;;6176328;23;19927;-87
2023/07/29 00:05:34;;;;;;;;;;;;;;;;;;6179247;23;20527;-87
2023/07/29 00:08:00;;;;;;;;;;;;;;;;;;6179978;23;19924;-87
2023/07/29 00:10:26;;;;;;;;;;;;;;;;;;6203004;23;20283;-88
2023/07/29 00:12:54;;;;;;;;;;;;;;;;;;6204751;23;19930;-88
2023/07/29 00:15:20;;;;;;;;;;;;;;;;;;6201299;23;19924;-88
2023/07/29 00:17:46;;;;;;;;;;;;;;;;;;6205021;23;19998;-87
2023/07/29 00:20:13;;;;;;;;;;;;;;;;;;6177845;23;20640;-88
2023/07/29 00:22:39;;;;;;;;;;;;;;;;;;6179729;23;19919;-88
2023/07/29 00:25:08;;;;;;;;;;;;;;;;;;6180473;23;19930;-88
2023/07/29 00:27:39;;;;;;;;;;;;;;;;;;6178473;23;20366;-88
2023/07/29 00:30:05;;;;;;;;;;;;;;;;;;6176132;23;19955;-88
2023/07/29 00:32:31;;;;;;;;;;;;;;;;;;6205143;23;19919;-88
2023/07/29 00:35:00;;;;;;;;;;;;;;;;;;6178163;23;20237;-88
2023/07/29 00:37:26;;;;;;;;;;;;;;;;;;6175243;23;20325;-88
2023/07/29 00:39:54;;;;;;;;;;;;;;;;;;6177449;23;19927;-86
2023/07/29 00:42:22;;;;;;;;;;;;;;;;;;6199834;23;20323;-87
2023/07/29 00:44:48;;;;;;;;;;;;;;;;;;6177838;23;19950;-88
2023/07/29 00:47:14;;;;;;;;;;;;;;;;;;6200457;23;19963;-88
2023/07/29 00:49:40;;;;;;;;;;;;;;;;;;6177648;23;20255;-88
2023/07/29 00:52:06;;;;;;;;;;;;;;;;;;6176567;23;19927;-88
2023/07/29 00:54:32;;;;;;;;;;;;;;;;;;6202325;23;19920;-88
2023/07/29 00:56:58;;;;;;;;;;;;;;;;;;6201517;23;19919;-87
2023/07/29 00:59:24;;;;;;;;;;;;;;;;;;6201042;23;19927;-87
2023/07/29 01:01:50;;;;;;;;;;;;;;;;;;6201266;23;20323;-87
2023/07/29 01:04:16;;;;;;;;;;;;;;;;;;6175963;23;19926;-87
2023/07/29 01:06:42;;;;;;;;;;;;;;;;;;6176370;23;19959;-87
2023/07/29 01:09:08;;;;;;;;;;;;;;;;;;6198883;23;19977;-87
2023/07/29 01:11:35;;;;;;;;;;;;;;;;;;6200972;23;19919;-88
2023/07/29 01:14:01;;;;;;;;;;;;;;;;;;6177614;23;19958;-88
2023/07/29 01:16:30;;;;;;;;;;;;;;;;;;6173341;23;19926;-88
2023/07/29 01:18:56;;;;;;;;;;;;;;;;;;6203056;23;19915;-88
2023/07/29 01:21:22;;;;;;;;;;;;;;;;;;6224251;23;19965;-88
2023/07/29 01:23:48;;;;;;;;;;;;;;;;;;6177724;23;19987;-88
2023/07/29 01:26:14;;;;;;;;;;;;;;;;;;6199707;23;19920;-88
2023/07/29 01:28:40;;;;;;;;;;;;;;;;;;6202257;23;19923;-87
2023/07/29 01:31:06;;;;;;;;;;;;;;;;;;6177068;23;19919;-88
2023/07/29 01:33:35;;;;;;;;;;;;;;;;;;6178467;23;19916;-88
2023/07/29 01:36:01;;;;;;;;;;;;;;;;;;6176772;23;19942;-87
2023/07/29 01:38:27;;;;;;;;;;;;;;;;;;6174776;23;19923;-87
2023/07/29 01:40:53;;;;;;;;;;;;;;;;;;6176318;23;19919;-87
2023/07/29 01:43:23;;;;;;;;;;;;;;;;;;6175003;23;19937;-87
2023/07/29 01:45:51;;;;;;;;;;;;;;;;;;6202880;23;20444;-87
2023/07/29 01:48:17;;;;;;;;;;;;;;;;;;6198488;23;20003;-87
2023/07/29 01:50:43;;;;;;;;;;;;;;;;;;6202753;23;19966;-88
2023/07/29 01:53:09;;;;;;;;;;;;;;;;;;6176045;23;19924;-87
2023/07/29 01:55:35;;;;;;;;;;;;;;;;;;6176774;23;19929;-87
2023/07/29 01:58:01;;;;;;;;;;;;;;;;;;6175902;23;20033;-87
2023/07/29 02:00:30;;;;;;;;;;;;;;;;;;6175015;23;20323;-88
2023/07/29 02:02:58;;;;;;;;;;;;;;;;;;6177389;23;19920;-88
2023/07/29 02:05:24;;;;;;;;;;;;;;;;;;6174081;23;19985;-88
2023/07/29 02:07:50;;;;;;;;;;;;;;;;;;6203165;23;20034;-88
2023/07/29 02:10:40;;;;;;;;;;;;;;;;;;6174171;23;19930;-88
2023/07/29 02:13:09;;;;;;;;;;;;;;;;;;6176810;23;20760;-87
2023/07/29 02:15:35;;;;;;;;;;;;;;;;;;6176702;23;19954;-88
2023/07/29 02:18:03;;;;;;;;;;;;;;;;;;6208928;23;19923;-88
2023/07/29 02:20:29;;;;;;;;;;;;;;;;;;6210582;23;19919;-88
2023/07/29 02:22:56;;;;;;;;;;;;;;;;;;6184709;23;19973;-88
2023/07/29 02:28:14;;;;;;;;;;;;;;;;;;6199479;23;19923;-88
2023/07/29 02:30:49;;;;;;;;;;;;;;;;;;6182914;23;19973;-88
2023/07/29 02:33:28;;;;;;;;;;;;;;;;;;6212543;23;19931;-88
2023/07/29 02:35:54;;;;;;;;;;;;;;;;;;6180374;23;20016;-88
2023/07/29 02:38:23;;;;;;;;;;;;;;;;;;6175975;23;19923;-88
2023/07/29 02:40:49;;;;;;;;;;;;;;;;;;6204751;23;20303;-88
2023/07/29 02:43:17;;;;;;;;;;;;;;;;;;6200547;23;20007;-88
2023/07/29 02:45:44;;;;;;;;;;;;;;;;;;6177466;23;19919;-88
2023/07/29 02:48:12;;;;;;;;;;;;;;;;;;6175211;23;19966;-89
2023/07/29 02:50:38;;;;;;;;;;;;;;;;;;6204181;23;19954;-89
2023/07/29 02:53:21;;;;;;;;;;;;;;;;;;6177859;23;20293;-88
2023/07/29 02:55:58;;;;;;;;;;;;;;;;;;6179441;23;19935;-88
2023/07/29 02:58:26;;;;;;;;;;;;;;;;;;6175573;23;19919;-88
2023/07/29 03:00:52;;;;;;;;;;;;;;;;;;6230085;23;19926;-88
2023/07/29 03:03:19;;;;;;;;;;;;;;;;;;6175555;23;20307;-88
2023/07/29 03:05:46;;;;;;;;;;;;;;;;;;6203241;23;20194;-89
2023/07/29 03:08:13;;;;;;;;;;;;;;;;;;6202733;23;19998;-89
2023/07/29 03:10:39;;;;;;;;;;;;;;;;;;6203347;23;19969;-88
2023/07/29 03:13:08;;;;;;;;;;;;;;;;;;6177570;23;19919;-88
2023/07/29 03:15:34;;;;;;;;;;;;;;;;;;6178277;23;20019;-89
2023/07/29 03:18:00;;;;;;;;;;;;;;;;;;6203426;23;19926;-89
2023/07/29 03:20:26;;;;;;;;;;;;;;;;;;6200645;23;19920;-88
2023/07/29 03:22:52;;;;;;;;;;;;;;;;;;6203856;23;19919;-88
2023/07/29 03:25:18;;;;;;;;;;;;;;;;;;6175597;23;19919;-88
2023/07/29 03:27:44;;;;;;;;;;;;;;;;;;6177923;23;19923;-89
2023/07/29 03:30:10;;;;;;;;;;;;;;;;;;6177404;23;20359;-89
2023/07/29 03:32:36;;;;;;;;;;;;;;;;;;6181854;23;19926;-89
2023/07/29 03:35:03;;;;;;;;;;;;;;;;;;6179912;23;20280;-89
2023/07/29 03:37:29;;;;;;;;;;;;;;;;;;6203245;23;20022;-89
2023/07/29 03:39:56;;;;;;;;;;;;;;;;;;6202764;23;19923;-89
2023/07/29 03:42:25;;;;;;;;;;;;;;;;;;6199149;23;19919;-88
2023/07/29 03:44:51;;;;;;;;;;;;;;;;;;6177353;23;20313;-89
2023/07/29 03:47:17;;;;;;;;;;;;;;;;;;6175951;23;19953;-89
2023/07/29 03:49:43;;;;;;;;;;;;;;;;;;6202998;23;19974;-89
2023/07/29 03:52:09;;;;;;;;;;;;;;;;;;6200201;23;20025;-89
2023/07/29 03:54:35;;;;;;;;;;;;;;;;;;6201391;23;19923;-88
2023/07/29 03:57:01;;;;;;;;;;;;;;;;;;6201044;23;19922;-89
2023/07/29 03:59:34;;;;;;;;;;;;;;;;;;6175599;23;19919;-88
2023/07/29 04:02:03;;;;;;;;;;;;;;;;;;6177865;23;19927;-89
2023/07/29 04:04:29;;;;;;;;;;;;;;;;;;6199253;23;20364;-89
2023/07/29 04:06:55;;;;;;;;;;;;;;;;;;6200361;23;20343;-89
2023/07/29 04:09:21;;;;;;;;;;;;;;;;;;6175352;23;19926;-89
2023/07/29 04:11:47;;;;;;;;;;;;;;;;;;6177445;23;19930;-89
2023/07/29 04:14:13;;;;;;;;;;;;;;;;;;6200730;23;19927;-89
2023/07/29 04:16:39;;;;;;;;;;;;;;;;;;6175676;23;19994;-88
2023/07/29 04:19:08;;;;;;;;;;;;;;;;;;6202565;23;19954;-89
2023/07/29 04:21:37;;;;;;;;;;;;;;;;;;6176311;23;20229;-89
2023/07/29 04:24:03;;;;;;;;;;;;;;;;;;6174934;23;20321;-88
2023/07/29 04:26:29;;;;;;;;;;;;;;;;;;6173721;23;19942;-89
2023/07/29 04:28:55;;;;;;;;;;;;;;;;;;6201923;23;19923;-89
2023/07/29 04:31:21;;;;;;;;;;;;;;;;;;6199338;23;20189;-89
2023/07/29 04:33:47;;;;;;;;;;;;;;;;;;6173849;23;19931;-88
2023/07/29 04:36:13;;;;;;;;;;;;;;;;;;6199094;23;19919;-89
2023/07/29 04:38:40;;;;;;;;;;;;;;;;;;6178900;23;20064;-89
2023/07/29 04:41:08;;;;;;;;;;;;;;;;;;6228786;23;20014;-88
2023/07/29 04:43:40;;;;;;;;;;;;;;;;;;6174815;23;19924;-90
2023/07/29 04:46:15;;;;;;;;;;;;;;;;;;6201386;23;19920;-90
2023/07/29 04:49:08;;;;;;;;;;;;;;;;;;6178864;23;19973;-90
2023/07/29 04:51:37;;;;;;;;;;;;;;;;;;6177022;23;19994;-90
2023/07/29 04:54:15;;;;;;;;;;;;;;;;;;6178616;23;19962;-90
2023/07/29 04:56:55;;;;;;;;;;;;;;;;;;6177767;23;19923;-88
2023/07/29 04:59:42;;;;;;;;;;;;;;;;;;6177390;23;20336;-88
2023/07/29 05:05:04;;;;;;;;;;;;;;;;;;6203093;23;19951;-88
2023/07/29 05:07:30;;;;;;;;;;;;;;;;;;6176171;23;20324;-88
2023/07/29 05:10:02;;;;;;;;;;;;;;;;;;6177658;23;20311;-89
2023/07/29 05:12:29;;;;;;;;;;;;;;;;;;6173565;23;19915;-88
2023/07/29 05:15:24;;;;;;;;;;;;;;;;;;;;;
2023/07/29 05:17:50;;;;;;;;;;;;;;;;;;6202802;23;19919;-88
2023/07/29 05:20:19;;;;;;;;;;;;;;;;;;6177104;23;20426;-89
2023/07/29 05:22:55;;;;;;;;;;;;;;;;;;6206748;23;20380;-90
2023/07/29 05:25:34;;;;;;;;;;;;;;;;;;6179152;23;20423;-89
2023/07/29 05:28:00;;;;;;;;;;;;;;;;;;6201572;23;19935;-89
2023/07/29 05:30:30;;;;;;;;;;;;;;;;;;6174760;23;20346;-89
2023/07/29 05:32:57;;;;;;;;;;;;;;;;;;6180063;23;20645;-89
2023/07/29 05:35:23;;;;;;;;;;;;;;;;;;6176573;23;19919;-89
2023/07/29 05:37:49;;;;;;;;;;;;;;;;;;6175096;23;19920;-89
2023/07/29 05:40:27;;;;;;;;;;;;;;;;;;6177165;23;20417;-89
2023/07/29 05:42:56;;;;;;;;;;;;;;;;;;6207695;23;20033;-89
2023/07/29 05:45:31;;;;;;;;;;;;;;;;;;6179855;23;19916;-89
2023/07/29 05:47:57;;;;;;;;;;;;;;;;;;6179990;23;20297;-89
2023/07/29 05:50:26;;;;;;;;;;;;;;;;;;6179334;23;20005;-88
2023/07/29 05:52:52;;;;;;;;;;;;;;;;;;6181180;23;20002;-89
2023/07/29 05:55:18;;;;;;;;;;;;;;;;;;6178057;23;19955;-88
2023/07/29 05:57:46;;;;;;;;;;;;;;;;;;6205107;23;19965;-88
2023/07/29 06:00:15;;;;;;;;;;;;;;;;;;6177123;23;19947;-89
2023/07/29 06:02:41;;;;;;;;;;;;;;;;;;6179709;23;19919;-89
2023/07/29 06:05:12;;;;;;;;;;;;;;;;;;6179720;23;19966;-89
2023/07/29 06:07:38;;;;;;;;;;;;;;;;;;6181483;23;19924;-89
2023/07/29 06:10:04;;;;;;;;;;;;;;;;;;6182570;23;19919;-89
2023/07/29 06:12:34;;;;;;;;;;;;;;;;;;6181408;23;19963;-88
2023/07/29 06:15:00;;;;;;;;;;;;;;;;;;6181821;23;19924;-88
2023/07/29 06:20:17;;;;;;;;;;;;;;;;;;6170119;23;19923;-89
2023/07/29 06:22:46;;;;;;;;;;;;;;;;;;6180557;23;19927;-89
2023/07/29 06:25:14;;;;;;;;;;;;;;;;;;6179397;23;19991;-89
2023/07/29 06:27:43;;;;;;;;;;;;;;;;;;6182981;23;20017;-89
2023/07/29 06:30:09;;;;;;;;;;;;;;;;;;6180042;23;19926;-89
2023/07/29 06:32:38;;;;;;;;;;;;;;;;;;6181326;23;19942;-89
2023/07/29 06:35:07;;;;;;;;;;;;;;;;;;6181450;23;19920;-89
2023/07/29 06:37:36;;;;;;;;;;;;;;;;;;6182579;23;19938;-89
2023/07/29 06:40:02;;;;;;;;;;;;;;;;;;6181881;23;20328;-89
2023/07/29 06:42:28;;;;;;;;;;;;;;;;;;6180104;23;19931;-89
2023/07/29 06:45:02;;;;;;;;;;;;;;;;;;6207740;23;19994;-89
2023/07/29 06:47:28;;;;;;;;;;;;;;;;;;6205234;23;19924;-89
2023/07/29 06:49:57;;;;;;;;;;;;;;;;;;6181607;23;19915;-91
2023/07/29 06:52:23;;;;;;;;;;;;;;;;;;6178345;23;19926;-89
2023/07/29 06:54:49;;;;;;;;;;;;;;;;;;6181152;23;20344;-88
2023/07/29 06:57:15;;;;;;;;;;;;;;;;;;6179569;23;19920;-88
2023/07/29 06:59:41;;;;;;;;;;;;;;;;;;6181333;23;19915;-88
2023/07/29 07:02:07;;;;;;;;;;;;;;;;;;6179184;23;19930;-88
2023/07/29 07:04:33;;;;;;;;;;;;;;;;;;6182189;23;19920;-86
2023/07/29 07:07:00;;;;;;;;;;;;;;;;;;6207590;23;19923;-87
2023/07/29 07:09:26;;;;;;;;;;;;;;;;;;6180830;23;20236;-87
2023/07/29 07:11:55;;;;;;;;;;;;;;;;;;6183904;23;20002;-87
2023/07/29 07:14:21;;;;;;;;;;;;;;;;;;6179548;23;19951;-88
2023/07/29 07:16:47;;;;;;;;;;;;;;;;;;6183209;23;19960;-88
2023/07/29 07:19:13;;;;;;;;;;;;;;;;;;6181624;23;20245;-88
2023/07/29 07:21:40;;;;;;;;;;;;;;;;;;6183432;23;19919;-88
2023/07/29 07:24:08;;;;;;;;;;;;;;;;;;6208727;23;19969;-88
2023/07/29 07:26:34;;;;;;;;;;;;;;;;;;6209102;23;19926;-88
2023/07/29 07:29:00;;;;;;;;;;;;;;;;;;6208637;23;19935;-88
2023/07/29 07:31:26;;;;;;;;;;;;;;;;;;6183668;23;20337;-88
2023/07/29 07:33:52;;;;;;;;;;;;;;;;;;6186164;23;19959;-89
2023/07/29 07:36:18;;;;;;;;;;;;;;;;;;6182543;23;19926;-88
2023/07/29 07:38:44;;;;;;;;;;;;;;;;;;6183407;23;20017;-88
2023/07/29 07:41:10;;;;;;;;;;;;;;;;;;6207804;23;20209;-88
2023/07/29 07:43:36;;;;;;;;;;;;;;;;;;6182566;23;19915;-88
2023/07/29 07:46:03;;;;;;;;;;;;;;;;;;6209000;23;19950;-87
2023/07/29 07:48:29;;;;;;;;;;;;;;;;;;6182972;23;19923;-87
2023/07/29 07:50:55;;;;;;;;;;;;;;;;;;6183516;23;20296;-87
2023/07/29 07:53:21;;;;;;;;;;;;;;;;;;6180117;23;19933;-87
2023/07/29 07:55:47;;;;;;;;;;;;;;;;;;6182568;23;19926;-87
2023/07/29 07:58:13;;;;;;;;;;;;;;;;;;6179902;23;19991;-87
2023/07/29 08:00:39;;;;;;;;;;;;;;;;;;6181484;23;19990;-87
2023/07/29 08:03:10;;;;;;;;;;;;;;;;;;6181809;23;20355;-87
2023/07/29 08:05:39;;;;;;;;;;;;;;;;;;6183672;23;19919;-88
2023/07/29 08:08:08;;;;;;;;;;;;;;;;;;6182659;23;20262;-87
2023/07/29 08:10:37;;;;;;;;;;;;;;;;;;6183048;23;20332;-87
2023/07/29 08:13:03;;;;;;;;;;;;;;;;;;6182787;23;20112;-87
2023/07/29 08:15:29;;;;;;;;;;;;;;;;;;6180265;23;19939;-87
2023/07/29 08:17:55;;;;;;;;;;;;;;;;;;6207366;23;19915;-87
2023/07/29 08:20:21;;;;;;;;;;;;;;;;;;6201204;23;20533;-87
2023/07/29 08:22:47;;;;;;;;;;;;;;;;;;6182268;23;19919;-87
2023/07/29 08:25:13;;;;;;;;;;;;;;;;;;6180177;23;20253;-87
2023/07/29 08:27:39;;;;;;;;;;;;;;;;;;6181900;23;20293;-88
2023/07/29 08:30:08;;;;;;;;;;;;;;;;;;6182483;23;20232;-87
2023/07/29 08:32:34;;;;;;;;;;;;;;;;;;6180990;23;19916;-87
2023/07/29 08:35:00;;;;;;;;;;;;;;;;;;6206924;23;19920;-87
2023/07/29 08:37:27;;;;;;;;;;;;;;;;;;6180364;23;20030;-88
2023/07/29 08:39:53;;;;;;;;;;;;;;;;;;6182731;23;19920;-87
2023/07/29 08:42:20;;;;;;;;;;;;;;;;;;6182287;23;19937;-86
2023/07/29 08:44:45;;;;;;;;;;;;;;;;;;6183232;23;19923;-87
2023/07/29 08:47:15;;;;;;;;;;;;;;;;;;6182508;23;19923;-87
2023/07/29 08:49:44;;;;;;;;;;;;;;;;;;6185130;23;19998;-87
2023/07/29 08:52:10;;;;;;;;;;;;;;;;;;6181362;23;20283;-87
2023/07/29 08:54:36;;;;;;;;;;;;;;;;;;6206791;23;19954;-86
2023/07/29 08:57:02;;;;;;;;;;;;;;;;;;6182158;23;19919;-87
2023/07/29 08:59:28;;;;;;;;;;;;;;;;;;6178274;23;19993;-86
2023/07/29 09:01:56;;;;;;;;;;;;;;;;;;6184954;23;19987;-87
2023/07/29 09:04:23;;;;;;;;;;;;;;;;;;6182549;23;19926;-87
2023/07/29 09:06:52;;;;;;;;;;;;;;;;;;6187259;23;20332;-86
2023/07/29 09:09:18;;;;;;;;;;;;;;;;;;6209328;23;20361;-87
2023/07/29 09:11:44;;;;;;;;;;;;;;;;;;6209446;23;19915;-86
2023/07/29 09:14:12;;;;;;;;;;;;;;;;;;6183448;23;19947;-86
2023/07/29 09:16:38;;;;;;;;;;;;;;;;;;6211679;23;20355;-86
2023/07/29 09:19:05;;;;;;;;;;;;;;;;;;6211076;23;19987;-87
2023/07/29 09:21:36;;;;;;;;;;;;;;;;;;6185223;23;19954;-86
2023/07/29 09:24:02;;;;;;;;;;;;;;;;;;6210315;23;19961;-86
2023/07/29 09:26:34;;;;;;;;;;;;;;;;;;6181169;23;19915;-87
2023/07/29 09:29:00;;;;;;;;;;;;;;;;;;6183417;23;19919;-87
2023/07/29 09:31:26;;;;;;;;;;;;;;;;;;6179694;23;20482;-87
2023/07/29 09:34:01;;;;;;;;;;;;;;;;;;6185358;23;19919;-91
2023/07/29 09:36:27;;;;;;;;;;;;;;;;;;6181460;23;19951;-86
2023/07/29 09:38:59;;;;;;;;;;;;;;;;;;6206802;23;20336;-86
2023/07/29 09:59:47;;;;;;;;;;;;;;;;;;6151390;23;19928;-86
2023/07/29 10:02:29;;;;;;;;;;;;;;;;;;6056581;23;19921;-86
2023/07/29 10:05:16;;;;;;;;;;;;;;;;;;6089664;22;20000;-84
2023/07/29 10:07:42;;;;;;;;;;;;;;;;;;6207564;23;20352;-84
2023/07/29 10:10:08;;;;;;;;;;;;;;;;;;6231031;23;19920;-85
2023/07/29 10:12:34;;;;;;;;;;;;;;;;;;6235210;23;19927;-86
2023/07/29 10:15:01;;;;;;;;;;;;;;;;;;6207199;23;19919;-85
2023/07/29 10:17:27;;;;;;;;;;;;;;;;;;6176196;23;20870;-84
2023/07/29 10:19:53;;;;;;;;;;;;;;;;;;6207746;23;19915;-84
2023/07/29 10:22:19;;;;;;;;;;;;;;;;;;6203635;23;19926;-84
2023/07/29 10:24:45;;;;;;;;;;;;;;;;;;6235010;23;19920;-83
2023/07/29 10:27:11;;;;;;;;;;;;;;;;;;6205705;22;19930;-84
2023/07/29 10:29:37;;;;;;;;;;;;;;;;;;6183091;23;19926;-83
2023/07/29 10:32:03;;;;;;;;;;;;;;;;;;6184446;23;20336;-83
2023/07/29 10:34:29;;;;;;;;;;;;;;;;;;6205384;23;19923;-83
2023/07/29 10:36:55;;;;;;;;;;;;;;;;;;6208965;23;20261;-84
2023/07/29 10:39:21;;;;;;;;;;;;;;;;;;6181659;23;20304;-83
2023/07/29 10:41:48;;;;;;;;;;;;;;;;;;6208939;23;19919;-83
2023/07/29 10:44:14;;;;;;;;;;;;;;;;;;6205418;23;20290;-84
2023/07/29 10:46:40;;;;;;;;;;;;;;;;;;6182763;23;19951;-83
2023/07/29 10:49:06;;;;;;;;;;;;;;;;;;6206863;23;20493;-84
2023/07/29 10:51:33;;;;;;;;;;;;;;;;;;6209318;23;19969;-83
2023/07/29 10:53:59;;;;;;;;;;;;;;;;;;6207512;23;19974;-83
2023/07/29 10:56:25;;;;;;;;;;;;;;;;;;6182625;23;19916;-84
2023/07/29 10:58:51;;;;;;;;;;;;;;;;;;6210880;23;19926;-84
2023/07/29 11:01:17;;;;;;;;;;;;;;;;;;6205236;23;19920;-86
2023/07/29 11:03:43;;;;;;;;;;;;;;;;;;6180742;23;19920;-88
2023/07/29 11:06:09;;;;;;;;;;;;;;;;;;6203913;23;20426;-85
2023/07/29 11:08:35;;;;;;;;;;;;;;;;;;6205725;23;20222;-86
2023/07/29 11:11:01;;;;;;;;;;;;;;;;;;6234527;23;19973;-86
2023/07/29 11:13:27;;;;;;;;;;;;;;;;;;6232031;23;20336;-83
2023/07/29 11:15:53;;;;;;;;;;;;;;;;;;6211475;23;20333;-86
2023/07/29 11:18:19;;;;;;;;;;;;;;;;;;6181094;23;19919;-85
2023/07/29 11:20:45;;;;;;;;;;;;;;;;;;6178631;23;20303;-85
2023/07/29 11:23:11;;;;;;;;;;;;;;;;;;6200092;23;20159;-85
2023/07/29 11:25:38;;;;;;;;;;;;;;;;;;6204063;23;19920;-84
2023/07/29 11:28:04;;;;;;;;;;;;;;;;;;6210802;23;19924;-85
2023/07/29 11:30:30;;;;;;;;;;;;;;;;;;6229226;23;19965;-84
2023/07/29 11:32:56;;;;;;;;;;;;;;;;;;6206911;23;19924;-84
2023/07/29 11:35:22;;;;;;;;;;;;;;;;;;6201879;23;20339;-85
2023/07/29 11:37:48;;;;;;;;;;;;;;;;;;6203898;23;19919;-85
2023/07/29 11:40:14;;;;;;;;;;;;;;;;;;6202309;23;19915;-85
2023/07/29 11:42:40;;;;;;;;;;;;;;;;;;6204206;23;19919;-85
2023/07/29 11:45:06;;;;;;;;;;;;;;;;;;6203457;23;20062;-85
2023/07/29 11:47:35;;;;;;;;;;;;;;;;;;6180111;23;19977;-85
2023/07/29 11:50:01;;;;;;;;;;;;;;;;;;6177809;23;19942;-85
2023/07/29 11:52:27;;;;;;;;;;;;;;;;;;6200930;23;19919;-86
2023/07/29 11:54:53;;;;;;;;;;;;;;;;;;6204506;23;20364;-88
2023/07/29 11:57:19;;;;;;;;;;;;;;;;;;6200451;23;20319;-89
2023/07/29 11:59:45;;;;;;;;;;;;;;;;;;6179064;23;20019;-86
2023/07/29 12:02:11;;;;;;;;;;;;;;;;;;6225803;23;19919;-88
2023/07/29 12:04:37;;;;;;;;;;;;;;;;;;6231046;23;19977;-85
2023/07/29 12:07:03;;;;;;;;;;;;;;;;;;6231471;23;19923;-86
2023/07/29 12:09:29;;;;;;;;;;;;;;;;;;6200788;23;20123;-86
2023/07/29 12:11:55;;;;;;;;;;;;;;;;;;6230371;23;20325;-86
2023/07/29 12:14:21;;;;;;;;;;;;;;;;;;6226266;23;20248;-84
2023/07/29 12:16:47;;;;;;;;;;;;;;;;;;6176623;23;20345;-87
2023/07/29 12:19:13;;;;;;;;;;;;;;;;;;6221753;23;19978;-84
2023/07/29 12:21:39;;;;;;;;;;;;;;;;;;6227730;23;19919;-85
2023/07/29 12:24:05;;;;;;;;;;;;;;;;;;6179219;23;20337;-85
2023/07/29 12:26:31;;;;;;;;;;;;;;;;;;6199731;23;19927;-84
2023/07/29 12:28:57;;;;;;;;;;;;;;;;;;6202785;23;19916;-85
2023/07/29 12:31:23;;;;;;;;;;;;;;;;;;6175937;23;19994;-84
2023/07/29 12:33:49;;;;;;;;;;;;;;;;;;6178559;23;19919;-84
2023/07/29 12:36:15;;;;;;;;;;;;;;;;;;6177456;23;19927;-85
2023/07/29 12:38:41;;;;;;;;;;;;;;;;;;6179641;23;19919;-85
2023/07/29 12:41:07;;;;;;;;;;;;;;;;;;6176895;23;19920;-85
2023/07/29 12:43:35;;;;;;;;;;;;;;;;;;6204834;23;19923;-85
2023/07/29 12:46:00;;;;;;;;;;;;;;;;;;6203757;23;19915;-85
2023/07/29 12:48:26;;;;;;;;;;;;;;;;;;6201655;23;20326;-85
2023/07/29 12:50:52;;;;;;;;;;;;;;;;;;6179329;23;19927;-85
2023/07/29 12:53:18;;;;;;;;;;;;;;;;;;6179074;23;19927;-85
2023/07/29 12:55:44;;;;;;;;;;;;;;;;;;6204866;23;19973;-85
2023/07/29 12:58:10;;;;;;;;;;;;;;;;;;6175960;23;19916;-85
2023/07/29 13:00:36;;;;;;;;;;;;;;;;;;6231918;23;20257;-85
2023/07/29 13:03:05;;;;;;;;;;;;;;;;;;6204672;23;19926;-85
2023/07/29 13:05:32;;;;;;;;;;;;;;;;;;6203781;23;19915;-85
2023/07/29 13:07:58;;;;;;;;;;;;;;;;;;6178466;23;19973;-85
2023/07/29 13:10:24;;;;;;;;;;;;;;;;;;6201642;23;20321;-85
2023/07/29 13:12:49;;;;;;;;;;;;;;;;;;6180597;23;20363;-85
2023/07/29 13:15:15;;;;;;;;;;;;;;;;;;6203276;23;19930;-85
2023/07/29 13:17:41;;;;;;;;;;;;;;;;;;6203455;23;19959;-85
2023/07/29 13:20:08;;;;;;;;;;;;;;;;;;6229052;23;20332;-85
2023/07/29 13:22:33;;;;;;;;;;;;;;;;;;6203111;23;19920;-85
2023/07/29 13:24:59;;;;;;;;;;;;;;;;;;6229911;23;20291;-85
2023/07/29 13:27:26;;;;;;;;;;;;;;;;;;6174019;23;19927;-85
2023/07/29 13:29:52;;;;;;;;;;;;;;;;;;6202686;23;20408;-85
2023/07/29 13:32:18;;;;;;;;;;;;;;;;;;6229857;23;19946;-85
2023/07/29 13:34:44;;;;;;;;;;;;;;;;;;6202638;23;19938;-85
2023/07/29 13:37:10;;;;;;;;;;;;;;;;;;6199574;23;20371;-85
2023/07/29 13:39:36;;;;;;;;;;;;;;;;;;6181178;23;19965;-85
2023/07/29 13:42:02;;;;;;;;;;;;;;;;;;6230510;23;20288;-85
2023/07/29 13:44:28;;;;;;;;;;;;;;;;;;6201368;23;19915;-85
2023/07/29 13:46:54;;;;;;;;;;;;;;;;;;6231423;23;19943;-85
2023/07/29 13:49:20;;;;;;;;;;;;;;;;;;6201280;23;19939;-85
2023/07/29 13:51:46;;;;;;;;;;;;;;;;;;6228621;23;19924;-85
2023/07/29 13:54:12;;;;;;;;;;;;;;;;;;6193053;23;19927;-88
2023/07/29 13:56:38;;;;;;;;;;;;;;;;;;6170544;23;20446;-86
2023/07/29 13:59:04;;;;;;;;;;;;;;;;;;6170310;23;20010;-86
2023/07/29 14:01:30;;;;;;;;;;;;;;;;;;6193239;23;19927;-86
2023/07/29 14:03:56;;;;;;;;;;;;;;;;;;6196893;23;19930;-86
2023/07/29 14:06:22;;;;;;;;;;;;;;;;;;6194790;23;19977;-87
2023/07/29 14:08:48;;;;;;;;;;;;;;;;;;6199004;23;19923;-84
2023/07/29 14:11:14;;;;;;;;;;;;;;;;;;6175609;23;19919;-86
2023/07/29 14:13:40;;;;;;;;;;;;;;;;;;6204193;23;19916;-85
2023/07/29 14:16:06;;;;;;;;;;;;;;;;;;6199829;23;20275;-85
2023/07/29 14:18:32;;;;;;;;;;;;;;;;;;6200001;23;19919;-85
2023/07/29 14:20:58;;;;;;;;;;;;;;;;;;6198718;23;19927;-85
2023/07/29 14:23:24;;;;;;;;;;;;;;;;;;6170262;23;19919;-86
2023/07/29 14:25:50;;;;;;;;;;;;;;;;;;6174697;23;19919;-85
2023/07/29 14:28:16;;;;;;;;;;;;;;;;;;6195712;23;19935;-85
2023/07/29 14:30:42;;;;;;;;;;;;;;;;;;6199155;23;19990;-85
2023/07/29 14:33:08;;;;;;;;;;;;;;;;;;6198208;23;19919;-85
2023/07/29 14:35:34;;;;;;;;;;;;;;;;;;6198006;23;20295;-85
2023/07/29 14:38:00;;;;;;;;;;;;;;;;;;6172876;23;19927;-85
2023/07/29 14:40:26;;;;;;;;;;;;;;;;;;6170927;23;19924;-86
2023/07/29 14:42:52;;;;;;;;;;;;;;;;;;6171766;23;19920;-85
2023/07/29 14:45:18;;;;;;;;;;;;;;;;;;6169194;23;19926;-86
2023/07/29 14:47:44;;;;;;;;;;;;;;;;;;6171689;23;20027;-87
2023/07/29 14:50:10;;;;;;;;;;;;;;;;;;6196464;23;19979;-86
2023/07/29 14:52:36;;;;;;;;;;;;;;;;;;6171492;23;19924;-87
2023/07/29 14:55:02;;;;;;;;;;;;;;;;;;6198176;23;19919;-86
2023/07/29 14:57:28;;;;;;;;;;;;;;;;;;6197829;23;19919;-85
2023/07/29 14:59:54;;;;;;;;;;;;;;;;;;6174368;23;20257;-85
2023/07/29 15:02:22;;;;;;;;;;;;;;;;;;6167971;23;19919;-87
2023/07/29 15:04:48;;;;;;;;;;;;;;;;;;6171833;23;20086;-85
2023/07/29 15:07:14;;;;;;;;;;;;;;;;;;6168653;23;19924;-85
2023/07/29 15:09:40;;;;;;;;;;;;;;;;;;6195620;23;19920;-84
2023/07/29 15:12:06;;;;;;;;;;;;;;;;;;6196208;23;19929;-85
2023/07/29 15:14:32;;;;;;;;;;;;;;;;;;6196223;23;20296;-86
2023/07/29 15:16:58;;;;;;;;;;;;;;;;;;6169761;23;19919;-86
2023/07/29 15:19:24;;;;;;;;;;;;;;;;;;6170615;23;19929;-86
2023/07/29 15:21:50;;;;;;;;;;;;;;;;;;6175116;23;20248;-86
2023/07/29 15:24:16;;;;;;;;;;;;;;;;;;6175689;23;19919;-85
2023/07/29 15:26:42;;;;;;;;;;;;;;;;;;6199542;23;20299;-86
2023/07/29 15:29:08;;;;;;;;;;;;;;;;;;6171570;23;19920;-86
2023/07/29 15:31:34;;;;;;;;;;;;;;;;;;6197505;23;20007;-86
2023/07/29 15:34:00;;;;;;;;;;;;;;;;;;6172012;23;20272;-85
2023/07/29 15:36:26;;;;;;;;;;;;;;;;;;6194177;23;20409;-85
2023/07/29 15:38:52;;;;;;;;;;;;;;;;;;6196800;23;19919;-85
2023/07/29 15:41:18;;;;;;;;;;;;;;;;;;6222831;23;20130;-85
2023/07/29 15:43:44;;;;;;;;;;;;;;;;;;6177023;23;19926;-85
2023/07/29 15:46:10;;;;;;;;;;;;;;;;;;6173330;23;19919;-85
2023/07/29 15:48:36;;;;;;;;;;;;;;;;;;6172799;23;19931;-85
2023/07/29 15:51:02;;;;;;;;;;;;;;;;;;6202624;23;20307;-86
2023/07/29 15:53:28;;;;;;;;;;;;;;;;;;6172599;23;20256;-86
2023/07/29 15:55:55;;;;;;;;;;;;;;;;;;6180784;23;20283;-85
2023/07/29 15:58:21;;;;;;;;;;;;;;;;;;6198648;23;20459;-86
2023/07/29 16:00:46;;;;;;;;;;;;;;;;;;6203037;23;19920;-85
2023/07/29 16:03:12;;;;;;;;;;;;;;;;;;6199486;23;19980;-86
2023/07/29 16:05:38;;;;;;;;;;;;;;;;;;6199814;23;20287;-86
2023/07/29 16:08:05;;;;;;;;;;;;;;;;;;6175897;23;19923;-85
2023/07/29 16:10:31;;;;;;;;;;;;;;;;;;6198693;23;19973;-85
2023/07/29 16:12:57;;;;;;;;;;;;;;;;;;6200269;23;19998;-85
2023/07/29 16:15:23;;;;;;;;;;;;;;;;;;6198177;23;19926;-86
2023/07/29 16:17:52;;;;;;;;;;;;;;;;;;6177742;23;19935;-85
2023/07/29 16:20:18;;;;;;;;;;;;;;;;;;6199116;23;19970;-85
2023/07/29 16:22:44;;;;;;;;;;;;;;;;;;6206168;23;19919;-86
2023/07/29 16:28:33;;;;;;;;;;;;;;;;;;;;;
2023/07/29 16:37:22;;;;;;;;;;;;;;;;;;6084530;23;19927;-85
2023/07/29 16:49:43;;;;;;;;;;;;;;;;;;5911943;24;19927;-85
2023/07/29 17:02:05;;;;;;;;;;;;;;;;;;5857676;24;19995;-86
2023/07/29 17:04:26;;;;;;;;;;;;;;;;;;5998334;22;19916;-83
2023/07/29 17:06:54;;;;;;;;;;;;;;;;;;6181356;23;20648;-83
2023/07/29 17:09:21;;;;;;;;;;;;;;;;;;6179338;23;19970;-83
2023/07/29 17:11:49;;;;;;;;;;;;;;;;;;6204445;23;19947;-83
2023/07/29 17:14:18;;;;;;;;;;;;;;;;;;6177276;23;19919;-83
2023/07/29 17:16:46;;;;;;;;;;;;;;;;;;6179439;23;19926;-83
2023/07/29 17:19:13;;;;;;;;;;;;;;;;;;6204573;23;19915;-83
2023/07/29 17:21:40;;;;;;;;;;;;;;;;;;6179998;23;19919;-84
2023/07/29 17:26:59;;;;;;;;;;;;;;;;;;6167481;23;19920;-84
2023/07/29 17:29:46;;;;;;;;;;;;;;;;;;6140867;23;19966;-86
2023/07/29 17:32:37;;;;;;;;;;;;;;;;;;6160590;23;19924;-86
2023/07/29 17:35:09;;;;;;;;;;;;;;;;;;6142253;23;19931;-83
2023/07/29 17:37:36;;;;;;;;;;;;;;;;;;6117278;23;19920;-84
2023/07/29 17:40:06;;;;;;;;;;;;;;;;;;6117815;23;20347;-83
2023/07/29 17:42:40;;;;;;;;;;;;;;;;;;6167520;23;19927;-84
2023/07/29 17:45:30;;;;;;;;;;;;;;;;;;6107734;23;19996;-84